Time;durP1;ratioP1;P1;durP2;ratioP2;P2;SDS_P1;SDS_P2;PMS_P1;PMS_P2;Temp;Humidity;BMP_temperature;BMP_pressure;BME280_temperature;BME280_humidity;BME280_pressure;Samples;Min_cycle;Max_cycle;Signal;HPM_P1;HPM_P2
2022/10/28 00:02:20;;;;;;;23.25;12.80;;;;;;;5.47;75.68;99720.16;5010369;28;20049;-65
2022/10/28 00:04:45;;;;;;;19.30;13.02;;;;;;;5.42;75.43;99712.09;5010053;28;20049;-67
2022/10/28 00:07:11;;;;;;;23.75;13.60;;;;;;;5.44;74.95;99728.44;5011812;28;20038;-66
2022/10/28 00:09:37;;;;;;;20.02;12.10;;;;;;;5.43;75.67;99722.38;5012011;28;20038;-66
2022/10/28 00:12:02;;;;;;;19.35;11.48;;;;;;;5.45;74.84;99723.00;5011452;28;20107;-65
2022/10/28 00:14:28;;;;;;;20.67;11.05;;;;;;;5.34;75.61;99701.72;5011503;28;20072;-65
2022/10/28 00:16:54;;;;;;;21.02;10.90;;;;;;;5.43;74.96;99726.84;4993882;28;20038;-66
2022/10/28 00:19:19;;;;;;;18.17;10.63;;;;;;;5.48;74.80;99721.81;5012100;28;20038;-64
2022/10/28 00:21:45;;;;;;;18.85;11.07;;;;;;;5.43;74.84;99724.22;5011716;28;20543;-65
2022/10/28 00:24:12;;;;;;;19.02;11.95;;;;;;;5.52;75.31;99712.50;5011949;28;20037;-64
2022/10/28 00:26:41;;;;;;;17.70;10.63;;;;;;;5.54;74.59;99712.34;5011424;28;20053;-64
2022/10/28 00:29:09;;;;;;;18.02;10.52;;;;;;;5.46;74.67;99713.31;5010426;28;20095;-65
2022/10/28 00:31:36;;;;;;;16.45;9.85;;;;;;;5.40;75.47;99714.91;5010396;28;20046;-65
2022/10/28 00:34:04;;;;;;;17.27;10.82;;;;;;;5.38;75.59;99722.19;5011791;28;20085;-64
2022/10/28 00:36:32;;;;;;;17.13;10.75;;;;;;;5.36;75.35;99716.31;5011247;28;20140;-66
2022/10/28 00:38:59;;;;;;;15.43;9.63;;;;;;;5.37;75.14;99717.09;5010333;28;20133;-65
2022/10/28 00:41:34;;;;;;;18.83;11.93;;;;;;;5.36;75.33;99723.38;5010334;28;20073;-66
2022/10/28 00:44:21;;;;;;;16.95;10.63;;;;;;;5.46;74.81;99724.63;5011748;28;20046;-66
2022/10/28 00:46:50;;;;;;;17.73;10.48;;;;;;;5.58;74.92;99731.97;4990505;28;20050;-65
2022/10/28 00:49:20;;;;;;;17.50;10.15;;;;;;;5.63;74.27;99717.22;5010273;28;20045;-65
2022/10/28 00:51:48;;;;;;;18.33;10.95;;;;;;;5.69;74.42;99716.44;5010329;28;20100;-66
2022/10/28 00:54:15;;;;;;;15.77;9.35;;;;;;;5.70;74.35;99718.03;5011737;28;20041;-66
2022/10/28 00:56:44;;;;;;;17.85;9.48;;;;;;;5.57;73.78;99686.44;5006270;28;20064;-66
2022/10/28 00:59:24;;;;;;;17.83;9.88;;;;;;;5.68;74.00;99712.19;4990158;28;20144;-66
2022/10/28 01:01:51;;;;;;;16.92;9.20;;;;;;;5.64;73.46;99721.47;4991459;28;20058;-65
2022/10/28 01:04:18;;;;;;;13.13;8.38;;;;;;;5.67;74.28;99717.63;4990500;28;20038;-65
2022/10/28 01:06:43;;;;;;;14.82;9.18;;;;;;;5.66;73.83;99716.81;4991783;28;20073;-65
2022/10/28 01:09:09;;;;;;;14.35;9.20;;;;;;;5.72;73.45;99715.22;4991907;28;20646;-66
2022/10/28 01:11:40;;;;;;;15.02;9.18;;;;;;;5.76;73.32;99713.81;4991664;28;20056;-65
2022/10/28 01:14:18;;;;;;;13.38;8.95;;;;;;;5.76;73.31;99710.38;4990242;28;20054;-65
2022/10/28 01:17:07;;;;;;;17.30;8.82;;;;;;;5.82;73.63;99713.00;4992804;28;20090;-65
2022/10/28 01:19:57;;;;;;;13.55;8.82;;;;;;;5.87;73.79;99717.69;4993977;28;20051;-65
2022/10/28 01:22:57;;;;;;;15.65;8.95;;;;;;;5.94;73.31;99715.09;4993924;28;20129;-66
2022/10/28 01:25:35;;;;;;;14.05;9.02;;;;;;;5.90;73.20;99714.66;4995395;28;20050;-65
2022/10/28 01:28:22;;;;;;;16.58;9.52;;;;;;;5.88;72.68;99714.03;4995165;28;20605;-65
2022/10/28 01:31:21;;;;;;;17.50;9.45;;;;;;;5.81;73.65;99716.66;4994956;28;20051;-65
2022/10/28 01:33:59;;;;;;;16.77;10.30;;;;;;;5.85;73.68;99704.75;4993716;28;20496;-65
2022/10/28 01:36:55;;;;;;;16.48;9.60;;;;;;;5.91;74.13;99714.47;4995028;28;20058;-66
2022/10/28 01:39:37;;;;;;;20.20;10.40;;;;;;;5.82;73.93;99710.38;4995271;28;20049;-64
2022/10/28 01:42:18;;;;;;;17.83;9.77;;;;;;;5.74;74.50;99710.59;4993638;28;20047;-66
2022/10/28 01:44:58;;;;;;;16.75;9.30;;;;;;;5.78;74.47;99703.09;4994716;28;20050;-66
2022/10/28 01:47:45;;;;;;;14.30;9.32;;;;;;;5.89;74.62;99705.97;4993356;28;20041;-66
2022/10/28 01:50:17;;;;;;;17.45;10.10;;;;;;;5.89;73.56;99705.97;4993321;28;20047;-66
2022/10/28 01:52:44;;;;;;;16.60;9.48;;;;;;;5.89;73.78;99705.16;4994888;28;20068;-66
2022/10/28 01:55:17;;;;;;;16.30;9.25;;;;;;;5.89;73.39;99708.59;4993220;28;20331;-66
2022/10/28 01:57:44;;;;;;;19.95;10.05;;;;;;;5.95;73.13;99712.28;4994361;28;20046;-66
2022/10/28 02:00:10;;;;;;;16.38;9.60;;;;;;;5.92;73.63;99715.28;4993161;28;20148;-65
2022/10/28 02:02:39;;;;;;;15.48;8.80;;;;;;;5.99;73.06;99723.22;4992998;28;20136;-65
2022/10/28 02:05:40;;;;;;;14.05;8.85;;;;;;;5.91;73.50;99718.91;4977123;28;20057;-67
2022/10/28 02:08:32;;;;;;;14.23;8.45;;;;;;;5.83;73.79;99714.66;4993128;28;20065;-65
2022/10/28 02:11:06;;;;;;;15.07;8.77;;;;;;;5.80;74.01;99716.88;4992981;28;20038;-66
2022/10/28 02:13:44;;;;;;;15.65;8.77;;;;;;;5.88;73.60;99719.31;4994544;28;20054;-65
2022/10/28 02:16:18;;;;;;;14.13;8.35;;;;;;;5.96;73.12;99706.00;4993959;28;20112;-64
2022/10/28 02:18:52;;;;;;;17.63;8.90;;;;;;;5.88;73.35;99707.00;4993048;28;20078;-65
2022/10/28 02:21:48;;;;;;;16.75;9.02;;;;;;;5.64;73.54;99692.53;4993983;28;20189;-65
2022/10/28 02:24:26;;;;;;;15.82;9.15;;;;;;;5.72;74.89;99703.91;4992608;28;20496;-66
2022/10/28 02:26:59;;;;;;;12.88;8.20;;;;;;;5.77;74.52;99698.88;4992035;28;20061;-66
2022/10/28 02:29:36;;;;;;;15.52;9.07;;;;;;;5.72;73.86;99702.06;4994335;28;20044;-66
2022/10/28 02:32:07;;;;;;;16.75;8.98;;;;;;;5.60;75.28;99701.03;4976292;28;20054;-66
2022/10/28 02:34:35;;;;;;;14.93;9.00;;;;;;;5.68;74.59;99706.13;4976353;28;20050;-66
2022/10/28 05:55:59;;;;;;;21.58;9.52;;;;;;;6.28;79.06;99691.28;5014378;28;20450;-66
2022/10/28 05:58:25;;;;;;;19.60;10.38;;;;;;;6.29;79.79;99684.19;5014394;28;20574;-67
2022/10/28 06:00:51;;;;;;;20.95;10.30;;;;;;;6.40;79.12;99691.47;5013470;28;20042;-65
2022/10/28 06:03:16;;;;;;;24.42;10.55;;;;;;;6.41;79.12;99685.19;4996691;28;20054;-65
2022/10/28 06:05:43;;;;;;;20.98;10.25;;;;;;;6.46;79.09;99695.13;5014189;28;20048;-68
2022/10/28 06:08:12;;;;;;;19.75;9.60;;;;;;;6.49;78.59;99689.47;5013011;28;20077;-65
2022/10/28 06:10:39;;;;;;;14.98;8.75;;;;;;;6.49;78.26;99690.25;5009674;28;20045;-65
2022/10/28 06:13:04;;;;;;;19.02;9.80;;;;;;;6.46;78.61;99692.50;5010804;28;20060;-66
2022/10/28 06:15:30;;;;;;;20.40;9.90;;;;;;;6.47;79.08;99692.31;5012234;28;20041;-64
2022/10/28 06:17:56;;;;;;;19.38;10.07;;;;;;;6.54;79.00;99689.66;5012230;28;20534;-65
2022/10/28 06:20:21;;;;;;;19.63;9.93;;;;;;;6.62;78.53;99692.09;5012914;28;20106;-66
2022/10/28 06:22:51;;;;;;;21.20;10.60;;;;;;;6.67;77.82;99683.56;5012885;28;20048;-65
2022/10/28 06:25:18;;;;;;;16.50;9.52;;;;;;;6.62;78.66;99678.09;4994808;28;20099;-65
2022/10/28 06:27:44;;;;;;;17.42;9.38;;;;;;;6.69;78.06;99671.81;5010785;28;20415;-66
2022/10/28 06:30:10;;;;;;;24.25;9.98;;;;;;;6.71;78.96;99669.00;4976810;28;20034;-65
2022/10/28 06:32:36;;;;;;;19.17;10.35;;;;;;;6.79;78.38;99666.13;4994361;28;20046;-66
2022/10/28 06:35:01;;;;;;;18.92;9.52;;;;;;;6.87;77.92;99660.63;5030355;28;20049;-64
2022/10/28 06:37:27;;;;;;;22.85;9.80;;;;;;;6.98;77.59;99667.91;5014168;28;20045;-65
2022/10/28 06:39:53;;;;;;;19.42;10.20;;;;;;;7.07;77.34;99662.41;5031117;28;20057;-65
2022/10/28 06:42:19;;;;;;;18.13;10.18;;;;;;;7.14;76.81;99664.00;5014010;28;20120;-64
2022/10/28 06:44:45;;;;;;;19.13;9.95;;;;;;;6.93;77.33;99628.19;5012653;28;20073;-65
2022/10/28 06:47:10;;;;;;;23.48;10.30;;;;;;;7.24;76.77;99664.38;4995742;28;20454;-65
2022/10/28 06:49:36;;;;;;;19.65;9.63;;;;;;;7.15;77.31;99670.09;5013502;28;20095;-66
2022/10/28 06:52:02;;;;;;;19.10;10.07;;;;;;;7.17;77.39;99670.69;4997439;28;20037;-65
2022/10/28 06:54:27;;;;;;;22.25;10.27;;;;;;;7.19;77.26;99658.91;5016632;28;20057;-63
2022/10/28 06:56:53;;;;;;;18.52;9.25;;;;;;;7.38;76.95;99675.69;4995947;28;20567;-65
2022/10/28 06:59:19;;;;;;;20.95;9.82;;;;;;;7.26;77.20;99670.25;5014018;28;20045;-64
2022/10/28 07:01:45;;;;;;;21.42;10.02;;;;;;;7.12;78.20;99668.69;5031645;28;20437;-67
2022/10/28 07:04:11;;;;;;;25.30;10.88;;;;;;;7.20;77.85;99665.00;4979775;28;20052;-65
2022/10/28 07:06:38;;;;;;;18.45;9.57;;;;;;;7.25;77.56;99655.44;4996767;28;20526;-65
2022/10/28 07:09:05;;;;;;;20.73;9.93;;;;;;;7.24;78.32;99658.31;4995576;28;20052;-65
2022/10/28 07:11:31;;;;;;;19.98;10.18;;;;;;;7.24;78.32;99650.41;5012765;28;20083;-66
2022/10/28 07:13:56;;;;;;;19.40;10.25;;;;;;;7.35;78.05;99648.91;5031114;28;20084;-65
2022/10/28 07:16:22;;;;;;;19.38;10.93;;;;;;;7.55;77.30;99659.38;5013878;28;20404;-65
2022/10/28 07:18:48;;;;;;;19.50;10.48;;;;;;;7.64;77.10;99656.28;5031045;28;20057;-66
2022/10/28 07:21:14;;;;;;;17.52;9.77;;;;;;;7.50;77.20;99641.56;5031589;28;20091;-65
2022/10/28 07:23:39;;;;;;;18.67;10.07;;;;;;;7.72;77.18;99660.50;5030994;28;20103;-65
2022/10/28 07:26:05;;;;;;;19.92;9.82;;;;;;;7.92;76.35;99668.31;5030605;28;20041;-64
2022/10/28 07:28:31;;;;;;;22.15;10.13;;;;;;;7.94;76.11;99660.97;5030529;28;20132;-63
2022/10/28 07:31:01;;;;;;;21.40;10.30;;;;;;;7.90;76.62;99654.50;5032129;28;20049;-65
2022/10/28 07:33:26;;;;;;;18.95;10.55;;;;;;;8.03;76.05;99664.16;5013778;28;20054;-64
2022/10/28 07:35:52;;;;;;;20.00;10.00;;;;;;;8.17;75.52;99661.19;5013302;28;20098;-67
2022/10/28 07:38:18;;;;;;;23.50;11.02;;;;;;;8.15;74.81;99652.72;5013003;28;20065;-67
2022/10/28 07:40:43;;;;;;;24.17;10.30;;;;;;;8.09;75.20;99665.94;5030299;28;20049;-65
2022/10/28 07:43:09;;;;;;;19.75;10.73;;;;;;;8.08;75.42;99659.06;5012858;28;20042;-67
2022/10/28 07:45:36;;;;;;;21.58;10.10;;;;;;;8.00;75.83;99644.31;4979706;28;20046;-66
2022/10/28 07:48:03;;;;;;;22.20;10.80;;;;;;;8.12;75.30;99652.34;5012365;28;20041;-67
2022/10/28 07:50:32;;;;;;;21.40;10.30;;;;;;;8.13;75.39;99653.94;4964615;28;20464;-68
2022/10/28 07:52:58;;;;;;;22.05;10.63;;;;;;;8.18;75.66;99652.28;4995728;28;20048;-65
2022/10/28 07:55:25;;;;;;;22.55;11.02;;;;;;;8.14;75.04;99656.34;5023470;28;20060;-64
2022/10/28 07:57:50;;;;;;;22.60;11.10;;;;;;;8.14;75.38;99651.06;5050789;28;20040;-64
2022/10/28 08:00:16;;;;;;;22.60;10.90;;;;;;;8.32;75.02;99652.97;5050875;28;20044;-67
2022/10/28 08:02:42;;;;;;;22.35;10.73;;;;;;;8.49;74.76;99653.25;5033501;28;20080;-65
2022/10/28 08:05:08;;;;;;;20.13;10.15;;;;;;;8.64;73.90;99661.66;5016369;28;20037;-67
2022/10/28 08:07:34;;;;;;;18.42;10.48;;;;;;;8.70;73.74;99667.91;5033181;28;20041;-67
2022/10/28 08:10:00;;;;;;;19.38;11.05;;;;;;;8.74;73.89;99660.38;5050969;28;20041;-68
2022/10/28 08:12:27;;;;;;;24.73;11.80;;;;;;;8.71;73.48;99672.19;5033238;28;20036;-67
2022/10/28 08:14:53;;;;;;;22.52;11.52;;;;;;;8.77;72.79;99667.88;5015443;28;20474;-67
2022/10/28 08:17:19;;;;;;;19.70;10.43;;;;;;;8.81;73.37;99671.66;5049369;28;20182;-66
2022/10/28 08:19:44;;;;;;;21.83;11.77;;;;;;;8.81;73.18;99671.66;5050357;28;20123;-67
2022/10/28 08:22:11;;;;;;;23.58;11.27;;;;;;;8.75;72.98;99636.34;5032454;28;20521;-67
2022/10/28 08:24:36;;;;;;;25.42;12.00;;;;;;;9.02;72.75;99667.78;5031102;28;20098;-70
2022/10/28 08:27:02;;;;;;;19.38;11.23;;;;;;;8.90;72.94;99664.25;5031941;28;20048;-67
2022/10/28 08:29:28;;;;;;;19.88;10.55;;;;;;;8.95;73.06;99657.28;5050533;28;20052;-65
2022/10/28 08:31:53;;;;;;;20.33;10.68;;;;;;;9.04;72.59;99655.16;5014695;28;20041;-71
2022/10/28 08:34:19;;;;;;;24.75;10.63;;;;;;;9.11;72.65;99647.97;5049863;28;20079;-66
2022/10/28 08:36:45;;;;;;;20.83;10.20;;;;;;;9.16;72.29;99647.31;5000000;28;20072;-66
2022/10/28 08:39:11;;;;;;;19.30;10.98;;;;;;;9.18;72.47;99632.03;5000274;28;20079;-68
2022/10/28 08:41:38;;;;;;;17.60;10.32;;;;;;;9.25;72.05;99643.31;5030288;28;20067;-67
2022/10/28 08:44:10;;;;;;;22.48;10.35;;;;;;;9.32;71.70;99628.16;5016945;28;20045;-68
2022/10/28 08:47:03;;;;;;;23.50;10.20;;;;;;;9.49;71.17;99629.16;5015374;28;20045;-67
2022/10/28 08:49:32;;;;;;;21.85;10.27;;;;;;;9.52;71.71;99631.38;5031707;28;20049;-68
2022/10/28 08:52:25;;;;;;;22.35;10.38;;;;;;;9.78;70.54;99629.38;5030010;28;20528;-67
2022/10/28 08:55:03;;;;;;;20.05;9.77;;;;;;;9.95;70.08;99624.25;5049527;28;20513;-70
2022/10/28 08:58:01;;;;;;;16.50;9.55;;;;;;;9.93;69.76;99628.97;4997584;28;20470;-70
2022/10/28 09:00:30;;;;;;;18.55;9.82;;;;;;;9.81;70.74;99628.94;5031169;28;20048;-71
2022/10/28 09:03:02;;;;;;;20.20;9.32;;;;;;;9.98;70.83;99637.03;5048535;28;20399;-69
2022/10/28 09:05:27;;;;;;;20.67;9.77;;;;;;;10.06;69.21;99635.88;5030003;28;20041;-72
2022/10/28 09:07:54;;;;;;;15.32;9.95;;;;;;;9.96;70.12;99636.44;5030484;28;20470;-70
2022/10/28 09:10:40;;;;;;;14.77;9.32;;;;;;;9.97;70.29;99638.88;5030899;28;20224;-70
2022/10/28 09:13:42;;;;;;;18.02;9.25;;;;;;;10.01;70.03;99636.59;5031196;28;20052;-71
2022/10/28 09:16:18;;;;;;;15.80;9.38;;;;;;;9.95;70.45;99633.00;5030131;28;20088;-73
2022/10/28 09:18:50;;;;;;;15.30;9.27;;;;;;;10.12;70.12;99627.84;4998102;28;20076;-71
2022/10/28 09:21:28;;;;;;;17.30;9.15;;;;;;;10.14;70.03;99625.75;5013655;28;20132;-72
2022/10/28 09:23:56;;;;;;;16.17;8.82;;;;;;;10.14;70.23;99614.38;5014224;28;20081;-71
2022/10/28 09:26:40;;;;;;;15.02;8.65;;;;;;;10.25;69.73;99621.53;5030197;28;20044;-71
2022/10/28 09:29:29;;;;;;;16.83;8.48;;;;;;;10.11;70.31;99620.13;5031260;28;20083;-70
2022/10/28 09:32:05;;;;;;;13.77;8.55;;;;;;;10.25;69.63;99618.88;5030132;28;20132;-71
2022/10/28 09:34:45;;;;;;;12.43;8.27;;;;;;;10.30;69.31;99616.38;5048196;28;20431;-71
2022/10/28 09:37:16;;;;;;;13.73;8.02;;;;;;;10.37;69.95;99618.91;5016498;28;20131;-68
2022/10/28 09:39:49;;;;;;;14.02;8.55;;;;;;;10.23;69.60;99611.19;5017429;28;20632;-70
2022/10/28 09:42:20;;;;;;;11.13;7.75;;;;;;;10.38;69.39;99612.56;5017579;28;20049;-70
2022/10/28 09:44:50;;;;;;;13.38;7.65;;;;;;;10.48;69.12;99609.38;5017150;28;20418;-69
2022/10/28 09:47:29;;;;;;;;;;;;;;;10.40;69.33;99603.34;5034692;28;20043;-71
2022/10/28 09:49:58;;;;;;;10.60;6.88;;;;;;;10.40;69.06;99597.25;5016395;28;20417;-69
2022/10/28 09:52:29;;;;;;;12.05;7.13;;;;;;;10.38;69.69;99594.84;5051199;28;20498;-70
2022/10/28 09:54:57;;;;;;;11.88;7.55;;;;;;;10.27;70.20;99592.19;5001059;28;20079;-65
2022/10/28 09:57:29;;;;;;;12.10;7.65;;;;;;;10.28;70.59;99594.59;5050718;28;20395;-67
2022/10/28 09:59:57;;;;;;;10.77;7.05;;;;;;;10.34;70.08;99583.09;5016006;28;20047;-67
2022/10/28 10:02:31;;;;;;;9.73;6.65;;;;;;;10.30;70.70;99586.44;5033015;28;20044;-69
2022/10/28 10:04:59;;;;;;;12.93;8.25;;;;;;;10.28;70.47;99591.16;5052134;28;20056;-67
2022/10/28 10:07:34;;;;;;;12.45;6.97;;;;;;;10.28;70.35;99586.66;5033240;28;20827;-69
2022/10/28 10:10:05;;;;;;;11.88;7.90;;;;;;;10.21;70.48;99584.09;5051078;28;20060;-68
2022/10/28 10:12:35;;;;;;;;;;;;;;;10.29;70.58;99579.50;5033379;28;20524;-70
2022/10/28 10:15:01;;;;;;;;;;;;;;;10.28;70.05;99572.59;5018231;28;20301;-69
2022/10/28 10:17:40;;;;;;;12.80;6.68;;;;;;;10.33;70.20;99570.88;5050476;28;19932;-69
2022/10/28 10:20:15;;;;;;;10.98;5.80;;;;;;;10.45;69.85;99563.72;5033445;28;20049;-70
2022/10/28 10:22:43;;;;;;;8.88;5.53;;;;;;;10.46;69.00;99564.53;5052502;28;20041;-69
2022/10/28 10:25:18;;;;;;;9.32;5.85;;;;;;;10.28;69.25;99560.16;5050328;28;20164;-69
2022/10/28 10:27:51;;;;;;;9.40;5.60;;;;;;;10.39;69.12;99558.56;5034193;28;20052;-70
2022/10/28 10:30:21;;;;;;;9.38;6.25;;;;;;;10.43;69.29;99555.19;5032825;28;20467;-70
2022/10/28 10:32:47;;;;;;;10.73;6.00;;;;;;;10.43;69.29;99547.25;5016276;28;20106;-68
2022/10/28 10:35:13;;;;;;;8.48;5.60;;;;;;;10.38;69.64;99554.28;5032569;28;20049;-70
2022/10/28 10:37:43;;;;;;;12.43;5.60;;;;;;;10.34;69.04;99553.13;5032513;28;20087;-69
2022/10/28 10:40:17;;;;;;;10.45;5.60;;;;;;;10.39;69.18;99564.66;5032935;28;20037;-69
2022/10/28 10:42:43;;;;;;;8.43;5.00;;;;;;;10.40;68.69;99562.81;5033102;28;20049;-70
2022/10/28 10:45:21;;;;;;;8.88;4.85;;;;;;;10.41;69.45;99540.56;5001055;28;20036;-71
2022/10/28 10:47:47;;;;;;;9.30;5.05;;;;;;;10.49;69.47;99550.81;5013139;28;20520;-69
2022/10/28 10:50:22;;;;;;;8.63;5.35;;;;;;;10.40;68.97;99553.00;5014887;28;20040;-69
2022/10/28 10:52:56;;;;;;;8.30;5.30;;;;;;;10.22;70.26;99542.50;4997916;28;20479;-69
2022/10/28 10:55:41;;;;;;;7.53;5.43;;;;;;;10.22;69.68;99543.31;5029870;28;20737;-67
2022/10/28 10:58:16;;;;;;;10.38;5.25;;;;;;;10.21;70.41;99541.72;5030313;28;20500;-68
2022/10/28 11:00:53;;;;;;;7.72;4.68;;;;;;;10.23;69.95;99541.47;5014278;28;20370;-69
2022/10/28 11:03:27;;;;;;;6.65;4.63;;;;;;;10.24;70.24;99540.44;5030689;28;20049;-69
2022/10/28 11:05:56;;;;;;;8.02;5.20;;;;;;;10.26;69.89;99534.91;5016200;28;20132;-67
2022/10/28 11:08:36;;;;;;;6.88;5.20;;;;;;;10.32;70.22;99529.50;5048894;28;20128;-68
2022/10/28 11:11:18;;;;;;;10.25;4.45;;;;;;;10.28;70.04;99538.16;5014542;28;20453;-67
2022/10/28 11:13:46;;;;;;;8.48;4.82;;;;;;;10.20;71.14;99536.63;4997961;28;20060;-67
2022/10/28 11:16:21;;;;;;;9.90;5.03;;;;;;;10.26;70.58;99535.69;5013594;28;20033;-66
2022/10/28 11:18:50;;;;;;;10.02;4.60;;;;;;;10.27;69.98;99533.91;5030984;28;20044;-68
2022/10/28 11:21:25;;;;;;;10.48;5.10;;;;;;;10.21;70.95;99523.16;5013485;28;20418;-68
2022/10/28 11:24:09;;;;;;;10.40;4.72;;;;;;;10.13;70.78;99528.00;5029092;28;20048;-68
2022/10/28 11:26:42;;;;;;;7.15;5.00;;;;;;;10.26;70.96;99525.09;5016373;28;20467;-68
2022/10/28 11:29:10;;;;;;;8.25;4.97;;;;;;;10.23;71.31;99525.56;5014121;28;20049;-69
2022/10/28 11:32:18;;;;;;;7.53;5.28;;;;;;;10.21;71.01;99520.53;4996098;28;20410;-68
2022/10/28 11:34:50;;;;;;;9.60;5.65;;;;;;;10.19;71.01;99522.59;5014950;28;20084;-68
2022/10/28 11:37:43;;;;;;;9.88;4.80;;;;;;;10.24;70.97;99517.41;5016418;28;20136;-69
2022/10/28 11:40:15;;;;;;;10.77;5.32;;;;;;;10.33;71.28;99514.44;5033087;28;20040;-68
2022/10/28 11:42:45;;;;;;;8.82;4.88;;;;;;;10.32;71.19;99518.91;4999722;28;20045;-66
2022/10/28 11:45:18;;;;;;;13.60;6.13;;;;;;;10.32;71.07;99515.44;5013939;28;20102;-71
2022/10/28 11:48:16;;;;;;;7.95;5.10;;;;;;;10.26;70.94;99503.09;5033879;28;20099;-69
2022/10/28 11:50:51;;;;;;;8.00;4.85;;;;;;;10.32;70.96;99507.50;5013991;28;20173;-71
2022/10/28 11:53:25;;;;;;;8.65;5.25;;;;;;;10.31;71.10;99511.19;5029726;28;20132;-70
2022/10/28 11:56:23;;;;;;;8.77;5.45;;;;;;;10.33;71.47;99511.78;4996214;28;20087;-69
2022/10/28 11:59:00;;;;;;;;;;;;;;;10.29;70.82;99503.47;5031573;28;20571;-70
2022/10/28 12:02:08;;;;;;;8.80;4.68;;;;;;;10.25;71.43;99491.72;5031963;28;19916;-70
2022/10/28 12:04:52;;;;;;;7.53;4.72;;;;;;;10.26;71.39;99495.97;5004059;28;20057;-73
2022/10/28 12:07:32;;;;;;;9.45;5.13;;;;;;;10.27;71.70;99502.13;5048788;28;20051;-73
2022/10/28 12:10:30;;;;;;;6.80;5.55;;;;;;;10.25;72.00;99497.00;5015958;28;20053;-75
2022/10/28 12:12:59;;;;;;;9.98;5.22;;;;;;;10.24;72.04;99493.56;5031422;28;20487;-74
2022/10/28 12:15:49;;;;;;;12.65;5.55;;;;;;;10.23;71.82;99488.47;5050694;28;20056;-74
2022/10/28 12:18:44;;;;;;;7.55;4.80;;;;;;;10.13;72.53;99489.06;5031802;28;20055;-75
2022/10/28 12:21:15;;;;;;;7.93;5.10;;;;;;;10.02;72.40;99489.88;5025730;28;20048;-75
2022/10/28 12:23:42;;;;;;;6.80;4.63;;;;;;;10.00;72.28;99494.63;5015747;28;20052;-77
2022/10/28 12:26:12;;;;;;;10.40;4.78;;;;;;;9.96;73.06;99496.91;5031888;28;20486;-76
2022/10/28 12:28:38;;;;;;;7.60;4.82;;;;;;;9.93;73.14;99493.91;5050154;28;20045;-76
2022/10/28 12:31:15;;;;;;;10.10;5.45;;;;;;;9.90;74.18;99495.19;5015597;28;20045;-75
2022/10/28 12:33:45;;;;;;;8.15;5.35;;;;;;;9.80;74.25;99494.16;4998893;28;20041;-70
2022/10/28 12:36:16;;;;;;;12.07;5.95;;;;;;;9.82;74.25;99492.88;5049466;28;20051;-70
2022/10/28 12:38:55;;;;;;;8.15;5.65;;;;;;;9.78;74.71;99489.06;5015283;28;20087;-73
2022/10/28 12:41:39;;;;;;;9.88;5.32;;;;;;;9.85;74.76;99491.59;5031804;28;20045;-73
2022/10/28 12:44:11;;;;;;;9.40;5.32;;;;;;;9.89;74.68;99488.28;5016013;28;20045;-76
2022/10/28 12:46:49;;;;;;;9.07;5.63;;;;;;;10.01;73.78;99489.06;4998313;28;20045;-72
2022/10/28 12:49:20;;;;;;;10.20;6.03;;;;;;;9.94;74.40;99483.09;5031393;28;20127;-75
2022/10/28 12:51:46;;;;;;;8.40;5.22;;;;;;;10.01;74.36;99480.34;5049390;28;20033;-73
2022/10/28 12:55:05;;;;;;;9.57;5.80;;;;;;;9.99;73.63;99469.16;5048459;28;20065;-74
2022/10/28 12:57:33;;;;;;;6.93;4.97;;;;;;;10.15;73.48;99478.25;5023566;28;20045;-71
2022/10/28 13:00:05;;;;;;;10.10;5.75;;;;;;;10.00;73.99;99476.88;4997505;28;20087;-70
2022/10/28 13:02:38;;;;;;;9.23;5.57;;;;;;;9.89;74.39;99466.28;5030075;28;20045;-67
2022/10/28 13:05:04;;;;;;;10.20;6.07;;;;;;;9.94;74.89;99476.97;5013809;28;20406;-69
2022/10/28 13:07:38;;;;;;;8.65;5.70;;;;;;;9.95;74.40;99478.63;5030274;28;20041;-73
2022/10/28 13:10:06;;;;;;;9.73;5.40;;;;;;;9.88;75.08;99477.91;5014447;28;20051;-71
2022/10/28 13:12:54;;;;;;;8.52;5.60;;;;;;;9.84;75.39;99476.75;5019221;28;20041;-72
2022/10/28 13:15:35;;;;;;;10.90;6.00;;;;;;;9.87;74.96;99471.81;5034719;28;20042;-70
2022/10/28 13:18:25;;;;;;;9.98;5.40;;;;;;;9.82;75.10;99476.97;5034558;28;20075;-71
2022/10/28 13:21:06;;;;;;;;;;;;;;;9.81;75.38;99480.69;5053330;28;20044;-69
2022/10/28 13:23:51;;;;;;;9.75;5.05;;;;;;;9.80;75.81;99475.63;5018648;28;20045;-70
2022/10/28 13:26:23;;;;;;;10.05;5.80;;;;;;;9.83;75.23;99478.63;5050127;28;20103;-71
2022/10/28 13:28:52;;;;;;;10.10;5.70;;;;;;;9.78;75.28;99459.97;5031408;28;20477;-70
2022/10/28 13:31:19;;;;;;;7.65;5.43;;;;;;;9.82;75.05;99478.81;5050391;28;20051;-69
2022/10/28 13:33:54;;;;;;;10.18;6.38;;;;;;;9.77;76.11;99472.41;5032049;28;20132;-71
2022/10/28 13:36:27;;;;;;;8.82;5.32;;;;;;;9.71;75.92;99465.38;5049968;28;20040;-69
2022/10/28 13:38:58;;;;;;;9.57;5.65;;;;;;;9.80;75.96;99470.34;5016843;28;20044;-70
2022/10/28 13:41:37;;;;;;;9.70;5.50;;;;;;;9.82;75.23;99468.25;4998922;28;20033;-70
2022/10/28 13:44:09;;;;;;;10.73;6.00;;;;;;;9.68;76.57;99463.19;5032266;28;20072;-69
2022/10/28 13:47:01;;;;;;;10.73;6.00;;;;;;;9.67;75.80;99458.91;5050882;28;20056;-70
2022/10/28 13:49:33;;;;;;;10.50;5.20;;;;;;;9.68;77.40;99473.78;5032111;28;20633;-69
2022/10/28 13:52:05;;;;;;;8.98;5.18;;;;;;;9.64;76.82;99459.38;5033010;28;20045;-70
2022/10/28 13:54:31;;;;;;;8.50;5.60;;;;;;;9.67;76.53;99456.25;5032732;28;20053;-69
2022/10/28 13:57:07;;;;;;;10.18;5.72;;;;;;;9.67;77.32;99452.81;5050240;28;20051;-71
2022/10/28 13:59:46;;;;;;;8.25;5.30;;;;;;;9.67;76.72;99450.97;5015005;28;20477;-69
2022/10/28 14:02:47;;;;;;;8.98;5.45;;;;;;;9.62;76.71;99437.63;5015548;28;20041;-68
2022/10/28 14:05:15;;;;;;;7.32;5.22;;;;;;;9.60;77.38;99439.69;5050163;28;20053;-67
2022/10/28 14:07:53;;;;;;;10.18;5.18;;;;;;;9.65;77.26;99449.59;5033746;28;20055;-67
2022/10/28 14:10:22;;;;;;;8.25;5.10;;;;;;;9.70;77.30;99455.81;5049524;28;20037;-68
2022/10/28 14:13:17;;;;;;;7.93;5.18;;;;;;;9.74;76.85;99443.72;5031804;28;20045;-69
2022/10/28 14:15:44;;;;;;;9.07;5.22;;;;;;;9.72;76.92;99443.16;5050040;28;20041;-67
2022/10/28 14:18:12;;;;;;;9.93;5.10;;;;;;;9.74;77.35;99456.16;5014647;28;20559;-70
2022/10/28 14:20:47;;;;;;;11.55;5.60;;;;;;;9.76;77.95;99441.66;5016179;28;20053;-69
2022/10/28 14:23:18;;;;;;;6.72;4.90;;;;;;;9.79;77.27;99443.03;5050022;28;20040;-70
2022/10/28 14:25:50;;;;;;;9.60;5.55;;;;;;;9.74;77.03;99450.88;5031114;28;20099;-70
2022/10/28 14:31:13;;;;;;;8.35;5.18;;;;;;;9.74;77.95;99448.22;5051367;28;20045;-70
2022/10/28 14:33:41;;;;;;;10.23;5.47;;;;;;;9.62;78.95;99450.03;5050003;28;20045;-71
2022/10/28 14:36:16;;;;;;;11.13;6.03;;;;;;;9.57;79.20;99447.28;5050643;28;20136;-68
2022/10/28 14:39:15;;;;;;;10.98;5.35;;;;;;;9.60;79.79;99457.44;5048716;28;20047;-69
2022/10/28 14:41:41;;;;;;;11.30;5.55;;;;;;;9.59;79.43;99450.50;5049021;28;20091;-67
2022/10/28 14:44:46;;;;;;;10.02;5.32;;;;;;;9.63;79.42;99449.81;5048414;28;20068;-69
2022/10/28 14:47:36;;;;;;;6.97;4.65;;;;;;;9.65;79.53;99445.13;5030399;28;20049;-68
2022/10/28 14:50:13;;;;;;;17.63;6.78;;;;;;;9.64;79.92;99446.13;5014138;28;20048;-69
2022/10/28 14:52:41;;;;;;;9.75;5.43;;;;;;;9.71;79.79;99451.34;5030722;28;20099;-68
2022/10/28 14:55:07;;;;;;;8.80;5.40;;;;;;;9.74;79.92;99437.63;5012524;28;20052;-69
2022/10/28 14:57:34;;;;;;;11.32;5.50;;;;;;;9.72;79.39;99447.66;5030858;28;20037;-71
2022/10/28 15:00:07;;;;;;;8.43;5.07;;;;;;;9.70;80.79;99436.47;5031857;28;20091;-69
2022/10/28 15:02:34;;;;;;;8.27;5.45;;;;;;;9.68;79.81;99431.44;5013119;28;20095;-65
2022/10/28 15:05:03;;;;;;;10.45;5.45;;;;;;;9.69;79.86;99432.22;5048404;28;20460;-68
2022/10/28 15:07:29;;;;;;;10.38;5.93;;;;;;;9.61;80.45;99430.72;5031240;28;20095;-68
2022/10/28 15:09:55;;;;;;;9.30;5.72;;;;;;;9.61;80.93;99424.63;5029313;28;20044;-66
2022/10/28 15:12:24;;;;;;;10.40;6.28;;;;;;;9.63;80.96;99419.91;5031050;28;20098;-68
2022/10/28 15:14:54;;;;;;;11.30;6.15;;;;;;;9.58;80.96;99422.44;5030759;28;20453;-70
2022/10/28 15:17:26;;;;;;;11.50;5.95;;;;;;;9.56;81.36;99420.03;4997823;28;20049;-72
2022/10/28 15:19:55;;;;;;;13.00;6.53;;;;;;;9.50;81.52;99419.09;5013102;28;20052;-71
2022/10/28 15:22:23;;;;;;;10.38;6.53;;;;;;;9.42;82.12;99408.84;5013100;28;20562;-71